JAL3530 RJSS-RJFF
Flight info
| Callsign | JAL3530 |
|---|---|
| Flight time | N/A |
| Altitude | 36000 |
| Route | GTC Y142 SAMON Y14 STOUT Y20 KIRIN |
| Aircraft | E190/M-SDE3GILORVW/S |
Departure
| Time | 2026-05-04 21:55 |
|---|---|
| Airport | Sendai Airport (RJSS) |
Arrival
| Time | N/A |
|---|---|
| Airport | Fukuoka Airport (RJFF) |
| Time | Latitude | Longitude | Altitude | Speed | Heading |
|---|---|---|---|---|---|
| 2026-05-04 21:40 | 38.13874 | 140.92858 | 14 ft | 0 kts | 172° |
| 2026-05-04 21:49 | 38.13885 | 140.92856 | 15 ft | 3 kts | 172° |
| 2026-05-04 21:49 | 38.13904 | 140.92853 | 15 ft | 3 kts | 172° |
| 2026-05-04 21:49 | 38.13922 | 140.92849 | 16 ft | 3 kts | 172° |
| 2026-05-04 21:49 | 38.13941 | 140.92846 | 14 ft | 3 kts | 172° |
| 2026-05-04 21:50 | 38.13958 | 140.92842 | 14 ft | 0 kts | 181° |
| 2026-05-04 21:52 | 38.13956 | 140.92842 | 17 ft | 1 kts | 181° |
| 2026-05-04 21:52 | 38.13946 | 140.92842 | 15 ft | 2 kts | 181° |
| 2026-05-04 21:52 | 38.13940 | 140.92855 | 15 ft | 3 kts | 105° |
| 2026-05-04 21:52 | 38.13966 | 140.92896 | 14 ft | 11 kts | 49° |
| 2026-05-04 21:53 | 38.14028 | 140.93003 | 14 ft | 16 kts | 70° |
| 2026-05-04 21:53 | 38.14047 | 140.93152 | 16 ft | 18 kts | 82° |
| 2026-05-04 21:53 | 38.14100 | 140.93277 | 15 ft | 16 kts | 17° |
| 2026-05-04 21:53 | 38.14200 | 140.93250 | 16 ft | 14 kts | 321° |
| 2026-05-04 21:54 | 38.14215 | 140.93153 | 18 ft | 11 kts | 263° |
| 2026-05-04 21:54 | 38.14193 | 140.92934 | 17 ft | 53 kts | 263° |
| 2026-05-04 21:54 | 38.14115 | 140.92182 | 20 ft | 117 kts | 262° |
| 2026-05-04 21:54 | 38.13986 | 140.90928 | 64 ft | 163 kts | 264° |
| 2026-05-04 21:55 | 38.13841 | 140.89443 | 568 ft | 173 kts | 265° |
| 2026-05-04 21:55 | 38.13685 | 140.87984 | 1091 ft | 155 kts | 265° |
| 2026-05-04 21:55 | 38.13523 | 140.86489 | 968 ft | 197 kts | 265° |
| 2026-05-04 21:55 | 38.13338 | 140.84637 | 1363 ft | 220 kts | 264° |
| 2026-05-04 21:56 | 38.12902 | 140.82773 | 2302 ft | 226 kts | 244° |
| 2026-05-04 21:56 | 38.11955 | 140.81152 | 3307 ft | 228 kts | 237° |
| 2026-05-04 21:56 | 38.10931 | 140.79525 | 3809 ft | 245 kts | 240° |
| 2026-05-04 21:56 | 38.09901 | 140.77753 | 4471 ft | 252 kts | 242° |
| 2026-05-04 21:57 | 38.08861 | 140.75941 | 5279 ft | 254 kts | 240° |
| 2026-05-04 21:57 | 38.07797 | 140.74143 | 6062 ft | 257 kts | 240° |
| 2026-05-04 21:57 | 38.06704 | 140.72332 | 6750 ft | 260 kts | 241° |
| 2026-05-04 21:57 | 38.05599 | 140.70498 | 7403 ft | 263 kts | 240° |
| 2026-05-04 21:58 | 38.04477 | 140.68644 | 8036 ft | 266 kts | 240° |
| 2026-05-04 21:58 | 38.03338 | 140.66776 | 8666 ft | 269 kts | 239° |
| 2026-05-04 21:58 | 38.02186 | 140.64886 | 9316 ft | 273 kts | 239° |
| 2026-05-04 21:58 | 38.01112 | 140.62915 | 9952 ft | 269 kts | 252° |
| 2026-05-04 21:59 | 38.00726 | 140.60628 | 10385 ft | 271 kts | 271° |
| 2026-05-04 21:59 | 38.00651 | 140.58188 | 10722 ft | 283 kts | 272° |
| 2026-05-04 21:59 | 38.00622 | 140.55798 | 11287 ft | 286 kts | 272° |
| 2026-05-04 21:59 | 38.00548 | 140.53255 | 11881 ft | 291 kts | 271° |
| 2026-05-04 22:00 | 38.00464 | 140.50678 | 12595 ft | 294 kts | 272° |
| 2026-05-04 22:00 | 38.00395 | 140.48072 | 13307 ft | 297 kts | 272° |
| 2026-05-04 22:00 | 38.00331 | 140.45435 | 14059 ft | 301 kts | 272° |
| 2026-05-04 22:00 | 38.00255 | 140.42791 | 14960 ft | 296 kts | 272° |
| 2026-05-04 22:01 | 38.00178 | 140.40176 | 15778 ft | 298 kts | 272° |
| 2026-05-04 22:01 | 38.00106 | 140.37545 | 16584 ft | 299 kts | 271° |
| 2026-05-04 22:01 | 38.00029 | 140.34893 | 17334 ft | 302 kts | 271° |
| 2026-05-04 22:01 | 37.99953 | 140.32248 | 18071 ft | 305 kts | 270° |
| 2026-05-04 22:02 | 37.99873 | 140.29508 | 18763 ft | 308 kts | 270° |
| 2026-05-04 22:02 | 37.99793 | 140.26825 | 19398 ft | 310 kts | 270° |
| 2026-05-04 22:02 | 37.99717 | 140.24098 | 20127 ft | 310 kts | 269° |
| 2026-05-04 22:02 | 37.99633 | 140.21366 | 20822 ft | 311 kts | 268° |
| 2026-05-04 22:03 | 37.99549 | 140.18619 | 21472 ft | 312 kts | 268° |
| 2026-05-04 22:03 | 37.99462 | 140.15823 | 22047 ft | 316 kts | 269° |
| 2026-05-04 22:03 | 37.99375 | 140.13034 | 22619 ft | 318 kts | 269° |
| 2026-05-04 22:03 | 37.99290 | 140.10261 | 23230 ft | 319 kts | 268° |
| 2026-05-04 22:04 | 37.99202 | 140.07442 | 23828 ft | 321 kts | 268° |
| 2026-05-04 22:04 | 37.99113 | 140.04606 | 24346 ft | 322 kts | 267° |
| 2026-05-04 22:04 | 37.99023 | 140.01760 | 24855 ft | 324 kts | 267° |
| 2026-05-04 22:04 | 37.98932 | 139.98899 | 25370 ft | 326 kts | 267° |
| 2026-05-04 22:05 | 37.98839 | 139.96026 | 25864 ft | 327 kts | 266° |
| 2026-05-04 22:05 | 37.98745 | 139.93140 | 26407 ft | 328 kts | 267° |
| 2026-05-04 22:05 | 37.98651 | 139.90208 | 26653 ft | 336 kts | 267° |
| 2026-05-04 22:05 | 37.98551 | 139.87236 | 27071 ft | 339 kts | 267° |
| 2026-05-04 22:06 | 37.98452 | 139.84242 | 27512 ft | 341 kts | 267° |
| 2026-05-04 22:06 | 37.98349 | 139.81234 | 27966 ft | 343 kts | 266° |
| 2026-05-04 22:06 | 37.98250 | 139.78214 | 28426 ft | 343 kts | 267° |
| 2026-05-04 22:06 | 37.98148 | 139.75182 | 28845 ft | 345 kts | 267° |
| 2026-05-04 22:07 | 37.98046 | 139.72141 | 29284 ft | 346 kts | 267° |
| 2026-05-04 22:07 | 37.97940 | 139.69086 | 29626 ft | 348 kts | 267° |
| 2026-05-04 22:07 | 37.97831 | 139.66019 | 30015 ft | 349 kts | 266° |
| 2026-05-04 22:07 | 37.97718 | 139.62945 | 30343 ft | 350 kts | 266° |
| 2026-05-04 22:08 | 37.97605 | 139.59859 | 30632 ft | 352 kts | 266° |
| 2026-05-04 22:08 | 37.97500 | 139.56761 | 30930 ft | 353 kts | 266° |
| 2026-05-04 22:08 | 37.97390 | 139.53647 | 31232 ft | 354 kts | 266° |
| 2026-05-04 22:08 | 37.97276 | 139.50523 | 31508 ft | 356 kts | 266° |
| 2026-05-04 22:09 | 37.97163 | 139.47389 | 31784 ft | 357 kts | 266° |
| 2026-05-04 22:09 | 37.97052 | 139.44247 | 32084 ft | 358 kts | 265° |
| 2026-05-04 22:09 | 37.96935 | 139.41100 | 32460 ft | 357 kts | 266° |
| 2026-05-04 22:09 | 37.96821 | 139.37958 | 32765 ft | 356 kts | 266° |
| 2026-05-04 22:10 | 37.96706 | 139.34838 | 33171 ft | 354 kts | 266° |
| 2026-05-04 22:10 | 37.96589 | 139.31736 | 33527 ft | 352 kts | 265° |
| 2026-05-04 22:10 | 37.96472 | 139.28645 | 33847 ft | 351 kts | 265° |
| 2026-05-04 22:10 | 37.96354 | 139.25562 | 34149 ft | 350 kts | 265° |
| 2026-05-04 22:11 | 37.96236 | 139.22489 | 34373 ft | 350 kts | 265° |
| 2026-05-04 22:11 | 37.96117 | 139.19411 | 34572 ft | 350 kts | 265° |
| 2026-05-04 22:11 | 37.95998 | 139.16335 | 34787 ft | 349 kts | 265° |
| 2026-05-04 22:11 | 37.95852 | 139.13263 | 34985 ft | 348 kts | 260° |
| 2026-05-04 22:12 | 37.95209 | 139.10311 | 35130 ft | 349 kts | 248° |
| 2026-05-04 22:12 | 37.94268 | 139.07481 | 35368 ft | 348 kts | 250° |
| 2026-05-04 22:12 | 37.93345 | 139.04653 | 35618 ft | 347 kts | 249° |
| 2026-05-04 22:12 | 37.92409 | 139.01840 | 35825 ft | 346 kts | 249° |
| 2026-05-04 22:13 | 37.91466 | 138.99038 | 36018 ft | 346 kts | 249° |
| 2026-05-04 22:13 | 37.89540 | 138.93396 | 36102 ft | 353 kts | 248° |
| 2026-05-04 22:14 | 37.87558 | 138.87642 | 36126 ft | 360 kts | 248° |
| 2026-05-04 22:14 | 37.85530 | 138.81782 | 36150 ft | 367 kts | 248° |
| 2026-05-04 22:15 | 37.83463 | 138.75830 | 36130 ft | 366 kts | 248° |
| 2026-05-04 22:15 | 37.82463 | 138.72964 | 36171 ft | 349 kts | 248° |
| 2026-05-04 22:15 | 37.81491 | 138.70170 | 36186 ft | 348 kts | 248° |
| 2026-05-04 22:16 | 37.79517 | 138.64506 | 36196 ft | 356 kts | 248° |
| 2026-05-04 22:16 | 37.77497 | 138.58721 | 36229 ft | 363 kts | 248° |
| 2026-05-04 22:17 | 37.75436 | 138.52838 | 36176 ft | 368 kts | 248° |
| 2026-05-04 22:17 | 37.73361 | 138.46925 | 36184 ft | 369 kts | 248° |
| 2026-05-04 22:18 | 37.71278 | 138.40998 | 36184 ft | 369 kts | 248° |
| 2026-05-04 22:18 | 37.69186 | 138.35078 | 36183 ft | 369 kts | 248° |
| 2026-05-04 22:19 | 37.67091 | 138.29161 | 36180 ft | 369 kts | 248° |
| 2026-05-04 22:19 | 37.64992 | 138.23243 | 36182 ft | 369 kts | 248° |
| 2026-05-04 22:20 | 37.62888 | 138.17327 | 36156 ft | 370 kts | 248° |
| 2026-05-04 22:20 | 37.60784 | 138.11417 | 36157 ft | 370 kts | 248° |
| 2026-05-04 22:21 | 37.58670 | 138.05492 | 36187 ft | 371 kts | 248° |
| 2026-05-04 22:21 | 37.56549 | 137.99558 | 36182 ft | 371 kts | 248° |
| 2026-05-04 22:22 | 37.54425 | 137.93629 | 36183 ft | 371 kts | 248° |
| 2026-05-04 22:22 | 37.52298 | 137.87703 | 36163 ft | 371 kts | 248° |
| 2026-05-04 22:23 | 37.50172 | 137.81792 | 36188 ft | 370 kts | 248° |
| 2026-05-04 22:23 | 37.48044 | 137.75885 | 36182 ft | 370 kts | 248° |
| 2026-05-04 22:24 | 37.46273 | 137.70979 | 36182 ft | 370 kts | 248° |
| 2026-05-04 22:24 | 37.44139 | 137.65076 | 36183 ft | 370 kts | 248° |
| 2026-05-04 22:25 | 37.41655 | 137.58221 | 36185 ft | 371 kts | 248° |
| 2026-05-04 22:25 | 37.39862 | 137.53278 | 36177 ft | 371 kts | 248° |
| 2026-05-04 22:26 | 37.37720 | 137.47386 | 36177 ft | 371 kts | 248° |
| 2026-05-04 22:26 | 37.35574 | 137.41495 | 36188 ft | 371 kts | 248° |
| 2026-05-04 22:27 | 37.33423 | 137.35600 | 36183 ft | 371 kts | 248° |
| 2026-05-04 22:27 | 37.31264 | 137.29699 | 36179 ft | 371 kts | 248° |
| 2026-05-04 22:28 | 37.29103 | 137.23810 | 36171 ft | 371 kts | 248° |
| 2026-05-04 22:28 | 37.26941 | 137.17926 | 36169 ft | 371 kts | 248° |
| 2026-05-04 22:29 | 37.24793 | 137.12077 | 36191 ft | 371 kts | 248° |
| 2026-05-04 22:29 | 37.22629 | 137.06204 | 36191 ft | 371 kts | 248° |
| 2026-05-04 22:30 | 37.20457 | 137.00328 | 36193 ft | 371 kts | 248° |
| 2026-05-04 22:30 | 37.18287 | 136.94464 | 36195 ft | 371 kts | 248° |
| 2026-05-04 22:31 | 37.16116 | 136.88601 | 36197 ft | 371 kts | 248° |
| 2026-05-04 22:31 | 37.13944 | 136.82736 | 36190 ft | 371 kts | 248° |
| 2026-05-04 22:32 | 37.11774 | 136.76878 | 36192 ft | 370 kts | 248° |
| 2026-05-04 22:32 | 37.09592 | 136.71028 | 36186 ft | 371 kts | 248° |
| 2026-05-04 22:33 | 37.07393 | 136.65178 | 36195 ft | 371 kts | 248° |
| 2026-05-04 22:33 | 37.05195 | 136.59323 | 36194 ft | 371 kts | 248° |
| 2026-05-04 22:34 | 37.03016 | 136.53517 | 36191 ft | 371 kts | 248° |
| 2026-05-04 22:34 | 37.00820 | 136.47672 | 36179 ft | 371 kts | 248° |
| 2026-05-04 22:35 | 36.98619 | 136.41822 | 36194 ft | 372 kts | 248° |
| 2026-05-04 22:35 | 36.96415 | 136.35974 | 36190 ft | 372 kts | 248° |
| 2026-05-04 22:36 | 36.94208 | 136.30129 | 36191 ft | 372 kts | 247° |
| 2026-05-04 22:36 | 36.91999 | 136.24288 | 36195 ft | 371 kts | 247° |
| 2026-05-04 22:37 | 36.89782 | 136.18438 | 36193 ft | 373 kts | 247° |
| 2026-05-04 22:37 | 36.87557 | 136.12578 | 36192 ft | 373 kts | 247° |
| 2026-05-04 22:38 | 36.85328 | 136.06720 | 36192 ft | 373 kts | 247° |
| 2026-05-04 22:38 | 36.83097 | 136.00868 | 36192 ft | 373 kts | 247° |
| 2026-05-04 22:39 | 36.80863 | 135.95015 | 36190 ft | 373 kts | 247° |
| 2026-05-04 22:39 | 36.78626 | 135.89166 | 36190 ft | 373 kts | 247° |
| 2026-05-04 22:40 | 36.76386 | 135.83320 | 36195 ft | 373 kts | 247° |
| 2026-05-04 22:40 | 36.74144 | 135.77478 | 36173 ft | 374 kts | 247° |
| 2026-05-04 22:41 | 36.71901 | 135.71648 | 36200 ft | 374 kts | 247° |
| 2026-05-04 22:41 | 36.69644 | 135.65790 | 36199 ft | 375 kts | 247° |
| 2026-05-04 22:42 | 36.67381 | 135.59928 | 36192 ft | 376 kts | 247° |
| 2026-05-04 22:42 | 36.65113 | 135.54059 | 36192 ft | 377 kts | 247° |
| 2026-05-04 22:43 | 36.62852 | 135.48220 | 36196 ft | 377 kts | 247° |
| 2026-05-04 22:43 | 36.60572 | 135.42347 | 36194 ft | 377 kts | 246° |
| 2026-05-04 22:44 | 36.58290 | 135.36484 | 36192 ft | 377 kts | 246° |
| 2026-05-04 22:44 | 36.56003 | 135.30611 | 36195 ft | 377 kts | 246° |
| 2026-05-04 22:45 | 36.53710 | 135.24742 | 36195 ft | 377 kts | 246° |
| 2026-05-04 22:45 | 36.50272 | 135.15943 | 36192 ft | 377 kts | 246° |
| 2026-05-04 22:46 | 36.47982 | 135.10097 | 36182 ft | 376 kts | 246° |
| 2026-05-04 22:46 | 36.45691 | 135.04256 | 36191 ft | 376 kts | 246° |
| 2026-05-04 22:47 | 36.43395 | 134.98422 | 36204 ft | 376 kts | 246° |
| 2026-05-04 22:47 | 36.41099 | 134.92591 | 36193 ft | 376 kts | 246° |
| 2026-05-04 22:48 | 36.38793 | 134.86751 | 36196 ft | 377 kts | 246° |
| 2026-05-04 22:48 | 36.36484 | 134.80902 | 36193 ft | 377 kts | 246° |
| 2026-05-04 22:49 | 36.34168 | 134.75062 | 36192 ft | 377 kts | 246° |
| 2026-05-04 22:49 | 36.31846 | 134.69226 | 36190 ft | 377 kts | 246° |
| 2026-05-04 22:50 | 36.29528 | 134.63379 | 36194 ft | 378 kts | 246° |
| 2026-05-04 22:50 | 36.27200 | 134.57538 | 36195 ft | 378 kts | 246° |
| 2026-05-04 22:51 | 36.24871 | 134.51698 | 36196 ft | 378 kts | 246° |
| 2026-05-04 22:51 | 36.22191 | 134.46078 | 36200 ft | 380 kts | 242° |
| 2026-05-04 22:52 | 36.19439 | 134.40544 | 36193 ft | 380 kts | 242° |
| 2026-05-04 22:52 | 36.16672 | 134.34973 | 36193 ft | 380 kts | 242° |
| 2026-05-04 22:53 | 36.13907 | 134.29405 | 36180 ft | 380 kts | 242° |
| 2026-05-04 22:53 | 36.11140 | 134.23840 | 36200 ft | 380 kts | 242° |
| 2026-05-04 22:54 | 36.08371 | 134.18279 | 36192 ft | 380 kts | 242° |
| 2026-05-04 22:54 | 36.05599 | 134.12719 | 36193 ft | 380 kts | 242° |
| 2026-05-04 22:55 | 36.02821 | 134.07157 | 36196 ft | 381 kts | 241° |
| 2026-05-04 22:55 | 36.00035 | 134.01586 | 36197 ft | 381 kts | 241° |
| 2026-05-04 22:56 | 35.97246 | 133.96019 | 36197 ft | 381 kts | 241° |
| 2026-05-04 22:56 | 35.94448 | 133.90456 | 36195 ft | 381 kts | 241° |
| 2026-05-04 22:57 | 35.91646 | 133.84903 | 36193 ft | 381 kts | 241° |
| 2026-05-04 22:57 | 35.88843 | 133.79355 | 36194 ft | 381 kts | 241° |
| 2026-05-04 22:58 | 35.86034 | 133.73802 | 36193 ft | 381 kts | 241° |
| 2026-05-04 22:58 | 35.83221 | 133.68251 | 36193 ft | 384 kts | 241° |
| 2026-05-04 22:59 | 35.80382 | 133.62658 | 36215 ft | 386 kts | 241° |
| 2026-05-04 22:59 | 35.77524 | 133.57037 | 36195 ft | 388 kts | 241° |
| 2026-05-04 23:00 | 35.74655 | 133.51408 | 36220 ft | 385 kts | 240° |
| 2026-05-04 23:00 | 35.71807 | 133.45823 | 36191 ft | 386 kts | 240° |
| 2026-05-04 23:01 | 35.68949 | 133.40228 | 36186 ft | 386 kts | 240° |
| 2026-05-04 23:01 | 35.66078 | 133.34620 | 36192 ft | 388 kts | 240° |
| 2026-05-04 23:02 | 35.63210 | 133.29023 | 36195 ft | 387 kts | 240° |
| 2026-05-04 23:02 | 35.60336 | 133.23427 | 36185 ft | 387 kts | 240° |
| 2026-05-04 23:03 | 35.57453 | 133.17820 | 36185 ft | 389 kts | 240° |
| 2026-05-04 23:03 | 35.54572 | 133.12215 | 36188 ft | 387 kts | 240° |
| 2026-05-04 23:04 | 35.51442 | 133.06825 | 36222 ft | 390 kts | 236° |
| 2026-05-04 23:04 | 35.48164 | 133.01539 | 36195 ft | 389 kts | 236° |
| 2026-05-04 23:05 | 35.44861 | 132.96244 | 36181 ft | 389 kts | 236° |
| 2026-05-04 23:05 | 35.41570 | 132.90989 | 36181 ft | 389 kts | 236° |
| 2026-05-04 23:06 | 35.38271 | 132.85737 | 36189 ft | 389 kts | 236° |
| 2026-05-04 23:06 | 35.35526 | 132.81374 | 36192 ft | 389 kts | 236° |